Portada
METAR-TAF:

METAR-TAF

Aeropuertos :

Decimomannu, Italia

latitud: 39-21N, longitud: 008-58E, altitud: 29 m

Observación

El informe se hizo hace 1 hora y 39 minutos, a las 19:55 UTC
Viento 4 kt del este
Temperatura 10°C
Humedad 82%
Presión 1028 hPa
Visibilidad 10 km o más
Escasas nubes a una altura de 3000 ft

METAR: LIED 031955Z 09004KT 9999 FEW030 10/07 Q1028 RMK FEW VIS MIN 9999 WIND

Hora: 22:34 (21:34 UTC)

Pronóstico

El informe se hizo hace 1 hora y 34 minutos, a las 20:00 UTC
Pronóstico válido del 03 a las 21 UTC al 04 a las 06 UTC
Viento 5 kt del sur-sureste
Visibilidad 10 km o más
Escasas nubes a una altura de 2000 ft
Temporalmente
del 04 a las 00 UTC al 04 a las 06 UTC
Viento 3 kt con dirección variable
Visibilidad: 5000 m
Nubes dispersas a una altura de 800 ft
neblina

TAF: LIED 032000Z 0321/0406 15005KT 9999 FEW020 TEMPO 0400/0406 VRB03KT 5000 BR SCT008

Observaciones y pronósticos meteorológicos de más de 4000 aeropuertos (mensajes METAR y TAF).

Los puntos amarillos y rojos representan las estaciones disponibles.

Ponga el ratón en el punto deseado para ver el nombre de la estación.

Haga clic para ver las observaciones y los pronósticos meteorológicos.

Para cambiar el mapa : haga clic en los botones verdes con una cruz de color negro para hacer un zoom, en el botón verde con un guión para alejar o en las flechas verdes para mapas adyacentes.


METAR-TAF: